sensor_id;sensor_type;location;lat;lon;timestamp;P1;durP1;ratioP1;P2;durP2;ratioP2
8986;SDS011;4529;51.360;12.474;2024-01-30T00:00:24;5.37;;;3.10;;
8986;SDS011;4529;51.360;12.474;2024-01-30T00:05:27;4.10;;;3.20;;
8986;SDS011;4529;51.360;12.474;2024-01-30T00:10:31;4.67;;;3.10;;
8986;SDS011;4529;51.360;12.474;2024-01-30T00:15:34;6.83;;;3.80;;
8986;SDS011;4529;51.360;12.474;2024-01-30T00:20:38;3.93;;;3.17;;
8986;SDS011;4529;51.360;12.474;2024-01-30T00:25:42;6.13;;;3.57;;
8986;SDS011;4529;51.360;12.474;2024-01-30T00:30:46;3.73;;;3.07;;
8986;SDS011;4529;51.360;12.474;2024-01-30T00:35:51;5.40;;;3.60;;
8986;SDS011;4529;51.360;12.474;2024-01-30T00:40:54;4.77;;;3.47;;
8986;SDS011;4529;51.360;12.474;2024-01-30T00:45:58;4.50;;;3.40;;
8986;SDS011;4529;51.360;12.474;2024-01-30T00:51:01;4.47;;;3.60;;
8986;SDS011;4529;51.360;12.474;2024-01-30T00:56:05;5.27;;;3.47;;
8986;SDS011;4529;51.360;12.474;2024-01-30T01:01:09;4.77;;;3.47;;
8986;SDS011;4529;51.360;12.474;2024-01-30T01:06:13;4.67;;;3.63;;
8986;SDS011;4529;51.360;12.474;2024-01-30T01:11:17;4.87;;;3.63;;
8986;SDS011;4529;51.360;12.474;2024-01-30T01:16:21;6.10;;;3.63;;
8986;SDS011;4529;51.360;12.474;2024-01-30T01:21:24;4.60;;;3.27;;
8986;SDS011;4529;51.360;12.474;2024-01-30T01:26:28;4.30;;;3.40;;
8986;SDS011;4529;51.360;12.474;2024-01-30T01:31:32;4.37;;;3.47;;
8986;SDS011;4529;51.360;12.474;2024-01-30T01:36:36;6.20;;;3.30;;
8986;SDS011;4529;51.360;12.474;2024-01-30T01:41:39;4.43;;;3.37;;
8986;SDS011;4529;51.360;12.474;2024-01-30T01:46:43;5.60;;;3.47;;
8986;SDS011;4529;51.360;12.474;2024-01-30T01:51:47;4.33;;;3.50;;
8986;SDS011;4529;51.360;12.474;2024-01-30T01:56:50;4.70;;;3.40;;
8986;SDS011;4529;51.360;12.474;2024-01-30T02:01:54;4.40;;;3.03;;
8986;SDS011;4529;51.360;12.474;2024-01-30T02:06:57;5.80;;;3.93;;
8986;SDS011;4529;51.360;12.474;2024-01-30T02:12:02;5.23;;;3.10;;
8986;SDS011;4529;51.360;12.474;2024-01-30T02:17:05;4.80;;;3.30;;
8986;SDS011;4529;51.360;12.474;2024-01-30T02:22:08;6.47;;;3.57;;
8986;SDS011;4529;51.360;12.474;2024-01-30T02:27:12;5.90;;;3.60;;
8986;SDS011;4529;51.360;12.474;2024-01-30T02:32:16;5.43;;;3.57;;
8986;SDS011;4529;51.360;12.474;2024-01-30T02:37:20;5.60;;;3.80;;
8986;SDS011;4529;51.360;12.474;2024-01-30T02:42:24;6.57;;;3.63;;
8986;SDS011;4529;51.360;12.474;2024-01-30T02:47:28;5.03;;;3.90;;
8986;SDS011;4529;51.360;12.474;2024-01-30T02:52:32;5.20;;;3.70;;
8986;SDS011;4529;51.360;12.474;2024-01-30T02:57:35;5.73;;;3.90;;
8986;SDS011;4529;51.360;12.474;2024-01-30T03:02:39;4.73;;;3.50;;
8986;SDS011;4529;51.360;12.474;2024-01-30T03:07:43;4.50;;;3.70;;
8986;SDS011;4529;51.360;12.474;2024-01-30T03:12:47;5.13;;;3.30;;
8986;SDS011;4529;51.360;12.474;2024-01-30T03:17:50;5.30;;;3.63;;
8986;SDS011;4529;51.360;12.474;2024-01-30T03:22:54;4.80;;;3.40;;
8986;SDS011;4529;51.360;12.474;2024-01-30T03:27:57;4.50;;;3.50;;
8986;SDS011;4529;51.360;12.474;2024-01-30T03:33:01;6.50;;;3.63;;
8986;SDS011;4529;51.360;12.474;2024-01-30T03:38:04;4.53;;;3.50;;
8986;SDS011;4529;51.360;12.474;2024-01-30T03:43:08;4.97;;;3.70;;
8986;SDS011;4529;51.360;12.474;2024-01-30T03:48:14;6.23;;;3.77;;
8986;SDS011;4529;51.360;12.474;2024-01-30T03:53:18;5.10;;;3.70;;
8986;SDS011;4529;51.360;12.474;2024-01-30T03:58:22;6.03;;;3.87;;
8986;SDS011;4529;51.360;12.474;2024-01-30T04:03:25;3.77;;;3.30;;
8986;SDS011;4529;51.360;12.474;2024-01-30T04:08:29;5.13;;;3.20;;
8986;SDS011;4529;51.360;12.474;2024-01-30T04:13:32;4.87;;;3.20;;
8986;SDS011;4529;51.360;12.474;2024-01-30T04:18:36;5.73;;;3.33;;
8986;SDS011;4529;51.360;12.474;2024-01-30T04:23:41;5.27;;;3.33;;
8986;SDS011;4529;51.360;12.474;2024-01-30T04:28:44;4.47;;;3.20;;
8986;SDS011;4529;51.360;12.474;2024-01-30T04:33:47;7.27;;;3.27;;
8986;SDS011;4529;51.360;12.474;2024-01-30T04:38:51;4.50;;;3.33;;
8986;SDS011;4529;51.360;12.474;2024-01-30T04:43:54;5.53;;;3.33;;
8986;SDS011;4529;51.360;12.474;2024-01-30T04:48:58;7.50;;;3.40;;
8986;SDS011;4529;51.360;12.474;2024-01-30T04:54:02;4.30;;;3.23;;
8986;SDS011;4529;51.360;12.474;2024-01-30T04:59:06;3.47;;;3.03;;
8986;SDS011;4529;51.360;12.474;2024-01-30T05:04:09;5.50;;;3.50;;
8986;SDS011;4529;51.360;12.474;2024-01-30T05:09:13;4.57;;;3.60;;
8986;SDS011;4529;51.360;12.474;2024-01-30T05:14:16;4.57;;;3.60;;
8986;SDS011;4529;51.360;12.474;2024-01-30T05:19:20;4.80;;;3.37;;
8986;SDS011;4529;51.360;12.474;2024-01-30T05:24:24;5.80;;;3.77;;
8986;SDS011;4529;51.360;12.474;2024-01-30T05:29:29;4.63;;;3.60;;
8986;SDS011;4529;51.360;12.474;2024-01-30T05:34:33;5.20;;;3.73;;
8986;SDS011;4529;51.360;12.474;2024-01-30T05:39:36;7.97;;;4.13;;
8986;SDS011;4529;51.360;12.474;2024-01-30T05:44:40;7.37;;;4.00;;
8986;SDS011;4529;51.360;12.474;2024-01-30T05:49:43;6.40;;;4.27;;
8986;SDS011;4529;51.360;12.474;2024-01-30T05:54:47;4.80;;;3.80;;
8986;SDS011;4529;51.360;12.474;2024-01-30T05:59:51;3.97;;;3.57;;
8986;SDS011;4529;51.360;12.474;2024-01-30T06:04:56;5.23;;;3.43;;
8986;SDS011;4529;51.360;12.474;2024-01-30T06:10:00;4.20;;;3.50;;
8986;SDS011;4529;51.360;12.474;2024-01-30T06:15:04;5.17;;;3.73;;
8986;SDS011;4529;51.360;12.474;2024-01-30T06:20:08;6.67;;;3.87;;
8986;SDS011;4529;51.360;12.474;2024-01-30T06:25:12;5.07;;;3.50;;
8986;SDS011;4529;51.360;12.474;2024-01-30T06:30:15;7.27;;;3.80;;
8986;SDS011;4529;51.360;12.474;2024-01-30T06:35:19;6.83;;;3.80;;
8986;SDS011;4529;51.360;12.474;2024-01-30T06:40:22;6.30;;;3.83;;
8986;SDS011;4529;51.360;12.474;2024-01-30T06:45:25;7.40;;;3.97;;
8986;SDS011;4529;51.360;12.474;2024-01-30T06:50:29;8.07;;;3.77;;
8986;SDS011;4529;51.360;12.474;2024-01-30T06:55:33;4.87;;;3.60;;
8986;SDS011;4529;51.360;12.474;2024-01-30T07:00:37;5.00;;;3.73;;
8986;SDS011;4529;51.360;12.474;2024-01-30T07:05:41;9.43;;;3.73;;
8986;SDS011;4529;51.360;12.474;2024-01-30T07:10:44;8.10;;;3.60;;
8986;SDS011;4529;51.360;12.474;2024-01-30T07:15:48;5.23;;;3.53;;
8986;SDS011;4529;51.360;12.474;2024-01-30T07:20:52;4.03;;;3.20;;
8986;SDS011;4529;51.360;12.474;2024-01-30T07:25:56;5.27;;;3.23;;
8986;SDS011;4529;51.360;12.474;2024-01-30T07:31:00;4.97;;;3.60;;
8986;SDS011;4529;51.360;12.474;2024-01-30T07:36:04;5.27;;;3.77;;
8986;SDS011;4529;51.360;12.474;2024-01-30T07:41:08;5.87;;;3.70;;
8986;SDS011;4529;51.360;12.474;2024-01-30T07:46:12;6.03;;;3.60;;
8986;SDS011;4529;51.360;12.474;2024-01-30T07:51:16;7.63;;;3.47;;
8986;SDS011;4529;51.360;12.474;2024-01-30T07:56:20;3.27;;;2.50;;
8986;SDS011;4529;51.360;12.474;2024-01-30T08:01:25;4.50;;;3.13;;
8986;SDS011;4529;51.360;12.474;2024-01-30T08:06:28;6.97;;;3.30;;
8986;SDS011;4529;51.360;12.474;2024-01-30T08:11:32;2.97;;;2.67;;
8986;SDS011;4529;51.360;12.474;2024-01-30T08:16:36;4.27;;;2.80;;
8986;SDS011;4529;51.360;12.474;2024-01-30T08:21:40;3.43;;;2.73;;
8986;SDS011;4529;51.360;12.474;2024-01-30T08:26:44;4.03;;;3.10;;
8986;SDS011;4529;51.360;12.474;2024-01-30T08:31:47;8.47;;;3.67;;
8986;SDS011;4529;51.360;12.474;2024-01-30T08:36:51;5.10;;;3.73;;
8986;SDS011;4529;51.360;12.474;2024-01-30T08:41:54;6.30;;;3.80;;
8986;SDS011;4529;51.360;12.474;2024-01-30T08:46:59;5.87;;;3.90;;
8986;SDS011;4529;51.360;12.474;2024-01-30T08:52:03;5.00;;;3.53;;
8986;SDS011;4529;51.360;12.474;2024-01-30T08:57:06;5.10;;;3.53;;
8986;SDS011;4529;51.360;12.474;2024-01-30T09:02:10;5.47;;;3.80;;
8986;SDS011;4529;51.360;12.474;2024-01-30T09:07:14;10.20;;;3.87;;
8986;SDS011;4529;51.360;12.474;2024-01-30T09:12:18;7.33;;;3.80;;
8986;SDS011;4529;51.360;12.474;2024-01-30T09:17:22;4.40;;;3.57;;
8986;SDS011;4529;51.360;12.474;2024-01-30T09:22:26;5.23;;;4.40;;
8986;SDS011;4529;51.360;12.474;2024-01-30T09:27:30;8.93;;;4.07;;
8986;SDS011;4529;51.360;12.474;2024-01-30T09:32:34;5.53;;;4.00;;
8986;SDS011;4529;51.360;12.474;2024-01-30T09:37:38;5.57;;;3.90;;
8986;SDS011;4529;51.360;12.474;2024-01-30T09:42:42;5.47;;;3.83;;
8986;SDS011;4529;51.360;12.474;2024-01-30T09:47:46;5.30;;;4.03;;
8986;SDS011;4529;51.360;12.474;2024-01-30T09:52:50;5.20;;;4.13;;
8986;SDS011;4529;51.360;12.474;2024-01-30T09:57:53;5.63;;;4.20;;
8986;SDS011;4529;51.360;12.474;2024-01-30T10:02:57;7.50;;;4.73;;
8986;SDS011;4529;51.360;12.474;2024-01-30T10:08:01;6.80;;;4.90;;
8986;SDS011;4529;51.360;12.474;2024-01-30T10:13:05;9.13;;;4.63;;
8986;SDS011;4529;51.360;12.474;2024-01-30T10:18:08;8.53;;;4.93;;
8986;SDS011;4529;51.360;12.474;2024-01-30T10:23:13;9.63;;;4.93;;
8986;SDS011;4529;51.360;12.474;2024-01-30T10:28:17;7.33;;;5.00;;
8986;SDS011;4529;51.360;12.474;2024-01-30T10:33:21;9.00;;;5.03;;
8986;SDS011;4529;51.360;12.474;2024-01-30T10:38:25;7.53;;;4.80;;
8986;SDS011;4529;51.360;12.474;2024-01-30T10:43:32;7.27;;;5.10;;
8986;SDS011;4529;51.360;12.474;2024-01-30T10:48:36;7.30;;;5.10;;
8986;SDS011;4529;51.360;12.474;2024-01-30T10:53:39;7.17;;;5.40;;
8986;SDS011;4529;51.360;12.474;2024-01-30T10:58:44;6.50;;;5.03;;
8986;SDS011;4529;51.360;12.474;2024-01-30T11:03:50;8.23;;;5.30;;
8986;SDS011;4529;51.360;12.474;2024-01-30T11:09:04;7.27;;;5.03;;
8986;SDS011;4529;51.360;12.474;2024-01-30T11:14:07;6.40;;;4.90;;
8986;SDS011;4529;51.360;12.474;2024-01-30T11:19:11;6.63;;;5.00;;
8986;SDS011;4529;51.360;12.474;2024-01-30T11:24:15;7.03;;;5.40;;
8986;SDS011;4529;51.360;12.474;2024-01-30T11:29:19;6.37;;;5.10;;
8986;SDS011;4529;51.360;12.474;2024-01-30T11:34:24;6.40;;;4.80;;
8986;SDS011;4529;51.360;12.474;2024-01-30T11:39:31;7.47;;;4.80;;
8986;SDS011;4529;51.360;12.474;2024-01-30T11:44:35;6.70;;;5.17;;
8986;SDS011;4529;51.360;12.474;2024-01-30T11:49:39;9.33;;;4.93;;
8986;SDS011;4529;51.360;12.474;2024-01-30T11:54:43;5.87;;;5.00;;
8986;SDS011;4529;51.360;12.474;2024-01-30T11:59:47;8.00;;;4.90;;
8986;SDS011;4529;51.360;12.474;2024-01-30T12:04:51;6.57;;;5.33;;
8986;SDS011;4529;51.360;12.474;2024-01-30T12:09:55;7.57;;;5.00;;
8986;SDS011;4529;51.360;12.474;2024-01-30T12:15:00;10.13;;;5.10;;
8986;SDS011;4529;51.360;12.474;2024-01-30T12:20:07;5.63;;;4.93;;
8986;SDS011;4529;51.360;12.474;2024-01-30T12:25:12;9.27;;;5.00;;
8986;SDS011;4529;51.360;12.474;2024-01-30T12:30:15;6.43;;;5.03;;
8986;SDS011;4529;51.360;12.474;2024-01-30T12:35:19;6.87;;;5.23;;
8986;SDS011;4529;51.360;12.474;2024-01-30T12:40:23;5.67;;;4.90;;
8986;SDS011;4529;51.360;12.474;2024-01-30T12:45:28;6.37;;;4.93;;
8986;SDS011;4529;51.360;12.474;2024-01-30T12:50:32;7.90;;;4.80;;
8986;SDS011;4529;51.360;12.474;2024-01-30T12:55:36;6.43;;;5.10;;
8986;SDS011;4529;51.360;12.474;2024-01-30T13:00:39;7.23;;;5.03;;
8986;SDS011;4529;51.360;12.474;2024-01-30T13:05:43;8.47;;;4.60;;
8986;SDS011;4529;51.360;12.474;2024-01-30T13:10:46;5.17;;;4.67;;
8986;SDS011;4529;51.360;12.474;2024-01-30T13:15:50;5.67;;;4.33;;
8986;SDS011;4529;51.360;12.474;2024-01-30T13:20:54;4.97;;;4.43;;
8986;SDS011;4529;51.360;12.474;2024-01-30T13:25:57;7.50;;;4.80;;
8986;SDS011;4529;51.360;12.474;2024-01-30T13:31:01;5.93;;;4.80;;
8986;SDS011;4529;51.360;12.474;2024-01-30T13:36:05;6.63;;;5.23;;
8986;SDS011;4529;51.360;12.474;2024-01-30T13:41:11;6.53;;;4.80;;
8986;SDS011;4529;51.360;12.474;2024-01-30T13:46:15;6.17;;;5.10;;
8986;SDS011;4529;51.360;12.474;2024-01-30T13:51:18;6.73;;;4.97;;
8986;SDS011;4529;51.360;12.474;2024-01-30T13:56:21;5.73;;;4.77;;
8986;SDS011;4529;51.360;12.474;2024-01-30T14:01:25;7.23;;;5.37;;
8986;SDS011;4529;51.360;12.474;2024-01-30T14:06:28;8.67;;;5.80;;
8986;SDS011;4529;51.360;12.474;2024-01-30T14:11:33;8.50;;;5.67;;
8986;SDS011;4529;51.360;12.474;2024-01-30T14:16:36;8.30;;;5.80;;
8986;SDS011;4529;51.360;12.474;2024-01-30T14:21:39;7.97;;;5.57;;
8986;SDS011;4529;51.360;12.474;2024-01-30T14:26:44;8.10;;;5.83;;
8986;SDS011;4529;51.360;12.474;2024-01-30T14:31:47;8.50;;;5.60;;
8986;SDS011;4529;51.360;12.474;2024-01-30T14:36:51;8.53;;;5.97;;
8986;SDS011;4529;51.360;12.474;2024-01-30T14:41:55;8.67;;;5.73;;
8986;SDS011;4529;51.360;12.474;2024-01-30T14:46:59;8.07;;;5.77;;
8986;SDS011;4529;51.360;12.474;2024-01-30T14:52:03;7.67;;;5.70;;
8986;SDS011;4529;51.360;12.474;2024-01-30T14:57:06;6.83;;;5.47;;
8986;SDS011;4529;51.360;12.474;2024-01-30T15:02:09;5.43;;;4.93;;
8986;SDS011;4529;51.360;12.474;2024-01-30T15:07:13;7.50;;;5.40;;
8986;SDS011;4529;51.360;12.474;2024-01-30T15:12:16;7.67;;;5.47;;
8986;SDS011;4529;51.360;12.474;2024-01-30T15:17:20;8.00;;;5.47;;
8986;SDS011;4529;51.360;12.474;2024-01-30T15:22:23;10.97;;;5.37;;
8986;SDS011;4529;51.360;12.474;2024-01-30T15:27:27;6.60;;;4.97;;
8986;SDS011;4529;51.360;12.474;2024-01-30T15:32:30;11.07;;;5.40;;
8986;SDS011;4529;51.360;12.474;2024-01-30T15:37:34;7.23;;;4.93;;
8986;SDS011;4529;51.360;12.474;2024-01-30T15:42:37;7.73;;;4.87;;
8986;SDS011;4529;51.360;12.474;2024-01-30T15:47:41;8.10;;;5.13;;
8986;SDS011;4529;51.360;12.474;2024-01-30T15:52:44;4.80;;;4.27;;
8986;SDS011;4529;51.360;12.474;2024-01-30T15:57:48;6.70;;;4.47;;
8986;SDS011;4529;51.360;12.474;2024-01-30T16:02:51;5.70;;;4.27;;
8986;SDS011;4529;51.360;12.474;2024-01-30T16:07:54;5.77;;;4.30;;
8986;SDS011;4529;51.360;12.474;2024-01-30T16:12:58;5.53;;;4.40;;
8986;SDS011;4529;51.360;12.474;2024-01-30T16:18:01;5.90;;;4.30;;
8986;SDS011;4529;51.360;12.474;2024-01-30T16:23:05;5.87;;;4.80;;
8986;SDS011;4529;51.360;12.474;2024-01-30T16:28:08;6.30;;;4.60;;
8986;SDS011;4529;51.360;12.474;2024-01-30T16:33:12;9.17;;;4.80;;
8986;SDS011;4529;51.360;12.474;2024-01-30T16:38:16;6.57;;;5.87;;
8986;SDS011;4529;51.360;12.474;2024-01-30T16:43:20;8.77;;;6.63;;
8986;SDS011;4529;51.360;12.474;2024-01-30T16:48:24;9.47;;;6.53;;
8986;SDS011;4529;51.360;12.474;2024-01-30T16:53:27;6.77;;;5.73;;
8986;SDS011;4529;51.360;12.474;2024-01-30T16:58:30;8.87;;;6.17;;
8986;SDS011;4529;51.360;12.474;2024-01-30T17:03:34;11.10;;;6.50;;
8986;SDS011;4529;51.360;12.474;2024-01-30T17:08:38;9.70;;;5.90;;
8986;SDS011;4529;51.360;12.474;2024-01-30T17:13:41;8.00;;;5.67;;
8986;SDS011;4529;51.360;12.474;2024-01-30T17:18:44;6.13;;;5.20;;
8986;SDS011;4529;51.360;12.474;2024-01-30T17:23:48;6.27;;;5.03;;
8986;SDS011;4529;51.360;12.474;2024-01-30T17:28:51;7.67;;;4.73;;
8986;SDS011;4529;51.360;12.474;2024-01-30T17:33:55;5.67;;;4.57;;
8986;SDS011;4529;51.360;12.474;2024-01-30T17:38:58;5.43;;;4.70;;
8986;SDS011;4529;51.360;12.474;2024-01-30T17:44:02;6.77;;;4.83;;
8986;SDS011;4529;51.360;12.474;2024-01-30T17:49:05;5.90;;;4.83;;
8986;SDS011;4529;51.360;12.474;2024-01-30T17:54:09;6.37;;;4.90;;
8986;SDS011;4529;51.360;12.474;2024-01-30T17:59:13;6.53;;;4.77;;
8986;SDS011;4529;51.360;12.474;2024-01-30T18:04:17;6.40;;;5.17;;
8986;SDS011;4529;51.360;12.474;2024-01-30T18:09:24;6.87;;;5.30;;
8986;SDS011;4529;51.360;12.474;2024-01-30T18:14:24;7.97;;;5.10;;
8986;SDS011;4529;51.360;12.474;2024-01-30T18:19:28;7.73;;;5.40;;
8986;SDS011;4529;51.360;12.474;2024-01-30T18:24:31;7.60;;;5.50;;
8986;SDS011;4529;51.360;12.474;2024-01-30T18:29:36;6.63;;;4.90;;
8986;SDS011;4529;51.360;12.474;2024-01-30T18:34:39;8.03;;;4.93;;
8986;SDS011;4529;51.360;12.474;2024-01-30T18:39:44;10.17;;;5.67;;
8986;SDS011;4529;51.360;12.474;2024-01-30T18:44:48;7.27;;;5.50;;
8986;SDS011;4529;51.360;12.474;2024-01-30T18:49:51;9.03;;;5.70;;
8986;SDS011;4529;51.360;12.474;2024-01-30T18:54:55;7.57;;;5.40;;
8986;SDS011;4529;51.360;12.474;2024-01-30T18:59:59;7.27;;;5.60;;
8986;SDS011;4529;51.360;12.474;2024-01-30T19:05:04;6.67;;;5.37;;
8986;SDS011;4529;51.360;12.474;2024-01-30T19:10:08;9.50;;;5.83;;
8986;SDS011;4529;51.360;12.474;2024-01-30T19:15:12;8.77;;;5.43;;
8986;SDS011;4529;51.360;12.474;2024-01-30T19:20:16;8.30;;;5.40;;
8986;SDS011;4529;51.360;12.474;2024-01-30T19:25:20;7.30;;;5.77;;
8986;SDS011;4529;51.360;12.474;2024-01-30T19:30:25;7.50;;;5.50;;
8986;SDS011;4529;51.360;12.474;2024-01-30T19:35:28;8.40;;;5.43;;
8986;SDS011;4529;51.360;12.474;2024-01-30T19:40:32;6.37;;;5.57;;
8986;SDS011;4529;51.360;12.474;2024-01-30T19:45:36;7.60;;;5.70;;
8986;SDS011;4529;51.360;12.474;2024-01-30T19:50:39;7.83;;;5.70;;
8986;SDS011;4529;51.360;12.474;2024-01-30T19:55:43;8.00;;;6.07;;
8986;SDS011;4529;51.360;12.474;2024-01-30T20:00:48;8.07;;;6.03;;
8986;SDS011;4529;51.360;12.474;2024-01-30T20:05:52;8.40;;;5.63;;
8986;SDS011;4529;51.360;12.474;2024-01-30T20:10:56;7.80;;;5.83;;
8986;SDS011;4529;51.360;12.474;2024-01-30T20:16:00;9.13;;;6.30;;
8986;SDS011;4529;51.360;12.474;2024-01-30T20:21:04;11.03;;;6.30;;
8986;SDS011;4529;51.360;12.474;2024-01-30T20:26:08;8.83;;;6.70;;
8986;SDS011;4529;51.360;12.474;2024-01-30T20:31:12;7.83;;;6.40;;
8986;SDS011;4529;51.360;12.474;2024-01-30T20:36:17;9.13;;;7.03;;
8986;SDS011;4529;51.360;12.474;2024-01-30T20:41:20;9.07;;;6.83;;
8986;SDS011;4529;51.360;12.474;2024-01-30T20:46:24;8.73;;;6.73;;
8986;SDS011;4529;51.360;12.474;2024-01-30T20:51:28;9.97;;;7.20;;
8986;SDS011;4529;51.360;12.474;2024-01-30T20:56:31;9.07;;;7.40;;
8986;SDS011;4529;51.360;12.474;2024-01-30T21:01:35;8.40;;;6.93;;
8986;SDS011;4529;51.360;12.474;2024-01-30T21:06:40;10.67;;;7.40;;
8986;SDS011;4529;51.360;12.474;2024-01-30T21:11:44;7.90;;;7.10;;
8986;SDS011;4529;51.360;12.474;2024-01-30T21:16:48;13.10;;;7.07;;
8986;SDS011;4529;51.360;12.474;2024-01-30T21:21:52;9.03;;;7.00;;
8986;SDS011;4529;51.360;12.474;2024-01-30T21:26:56;8.90;;;6.70;;
8986;SDS011;4529;51.360;12.474;2024-01-30T21:32:00;8.90;;;6.50;;
8986;SDS011;4529;51.360;12.474;2024-01-30T21:37:04;11.17;;;6.47;;
8986;SDS011;4529;51.360;12.474;2024-01-30T21:42:08;9.57;;;6.37;;
8986;SDS011;4529;51.360;12.474;2024-01-30T21:47:13;8.83;;;6.43;;
8986;SDS011;4529;51.360;12.474;2024-01-30T21:52:16;8.63;;;5.87;;
8986;SDS011;4529;51.360;12.474;2024-01-30T21:57:20;9.23;;;6.37;;
8986;SDS011;4529;51.360;12.474;2024-01-30T22:02:23;8.63;;;6.47;;
8986;SDS011;4529;51.360;12.474;2024-01-30T22:07:26;8.47;;;6.27;;
8986;SDS011;4529;51.360;12.474;2024-01-30T22:12:31;9.67;;;6.67;;
8986;SDS011;4529;51.360;12.474;2024-01-30T22:17:34;7.80;;;5.83;;
8986;SDS011;4529;51.360;12.474;2024-01-30T22:22:38;8.10;;;5.90;;
8986;SDS011;4529;51.360;12.474;2024-01-30T22:27:43;8.23;;;6.23;;
8986;SDS011;4529;51.360;12.474;2024-01-30T22:32:47;9.10;;;5.70;;
8986;SDS011;4529;51.360;12.474;2024-01-30T22:37:51;8.73;;;6.17;;
8986;SDS011;4529;51.360;12.474;2024-01-30T22:42:55;8.00;;;6.27;;
8986;SDS011;4529;51.360;12.474;2024-01-30T22:47:59;9.13;;;6.30;;
8986;SDS011;4529;51.360;12.474;2024-01-30T22:53:03;9.87;;;6.30;;
8986;SDS011;4529;51.360;12.474;2024-01-30T22:58:06;8.37;;;6.43;;
8986;SDS011;4529;51.360;12.474;2024-01-30T23:03:10;10.80;;;6.83;;
8986;SDS011;4529;51.360;12.474;2024-01-30T23:08:13;9.67;;;6.70;;
8986;SDS011;4529;51.360;12.474;2024-01-30T23:13:17;7.87;;;6.20;;
8986;SDS011;4529;51.360;12.474;2024-01-30T23:18:21;8.27;;;6.37;;
8986;SDS011;4529;51.360;12.474;2024-01-30T23:23:25;7.87;;;6.90;;
8986;SDS011;4529;51.360;12.474;2024-01-30T23:28:30;9.87;;;7.00;;
8986;SDS011;4529;51.360;12.474;2024-01-30T23:33:33;9.63;;;6.73;;
8986;SDS011;4529;51.360;12.474;2024-01-30T23:38:37;10.60;;;6.33;;
8986;SDS011;4529;51.360;12.474;2024-01-30T23:43:40;10.83;;;7.10;;
8986;SDS011;4529;51.360;12.474;2024-01-30T23:48:43;8.80;;;6.47;;
8986;SDS011;4529;51.360;12.474;2024-01-30T23:53:52;7.20;;;5.87;;
8986;SDS011;4529;51.360;12.474;2024-01-30T23:58:55;7.57;;;6.40;;
